sensor_id;sensor_type;location;lat;lon;timestamp;P1;durP1;ratioP1;P2;durP2;ratioP2
32393;SDS011;18853;45.426;9.206;2023-02-15T00:01:43;86.50;;;49.38;;
32393;SDS011;18853;45.426;9.206;2023-02-15T00:04:09;81.93;;;48.20;;
32393;SDS011;18853;45.426;9.206;2023-02-15T00:06:37;84.05;;;47.72;;
32393;SDS011;18853;45.426;9.206;2023-02-15T00:09:03;82.72;;;46.30;;
32393;SDS011;18853;45.426;9.206;2023-02-15T00:11:29;78.43;;;45.35;;
32393;SDS011;18853;45.426;9.206;2023-02-15T00:14:08;81.47;;;47.20;;
32393;SDS011;18853;45.426;9.206;2023-02-15T00:16:39;85.67;;;46.97;;
32393;SDS011;18853;45.426;9.206;2023-02-15T00:19:07;81.43;;;45.35;;
32393;SDS011;18853;45.426;9.206;2023-02-15T00:21:34;82.65;;;47.15;;
32393;SDS011;18853;45.426;9.206;2023-02-15T00:24:01;79.40;;;46.53;;
32393;SDS011;18853;45.426;9.206;2023-02-15T00:26:28;86.72;;;47.40;;
32393;SDS011;18853;45.426;9.206;2023-02-15T00:28:54;87.13;;;47.25;;
32393;SDS011;18853;45.426;9.206;2023-02-15T00:31:21;84.65;;;46.38;;
32393;SDS011;18853;45.426;9.206;2023-02-15T00:33:47;84.97;;;46.53;;
32393;SDS011;18853;45.426;9.206;2023-02-15T00:36:13;82.75;;;46.80;;
32393;SDS011;18853;45.426;9.206;2023-02-15T00:38:38;84.65;;;48.95;;
32393;SDS011;18853;45.426;9.206;2023-02-15T00:41:05;85.43;;;48.58;;
32393;SDS011;18853;45.426;9.206;2023-02-15T00:43:32;81.50;;;47.63;;
32393;SDS011;18853;45.426;9.206;2023-02-15T00:45:58;83.40;;;48.70;;
32393;SDS011;18853;45.426;9.206;2023-02-15T00:48:25;87.57;;;48.10;;
32393;SDS011;18853;45.426;9.206;2023-02-15T00:50:55;87.28;;;48.80;;
32393;SDS011;18853;45.426;9.206;2023-02-15T00:53:22;86.30;;;49.03;;
32393;SDS011;18853;45.426;9.206;2023-02-15T00:55:49;91.03;;;50.25;;
32393;SDS011;18853;45.426;9.206;2023-02-15T00:58:15;86.13;;;49.60;;
32393;SDS011;18853;45.426;9.206;2023-02-15T01:00:42;85.30;;;47.65;;
32393;SDS011;18853;45.426;9.206;2023-02-15T01:03:10;85.05;;;49.50;;
32393;SDS011;18853;45.426;9.206;2023-02-15T01:05:36;86.05;;;48.95;;
32393;SDS011;18853;45.426;9.206;2023-02-15T01:08:02;83.78;;;48.15;;
32393;SDS011;18853;45.426;9.206;2023-02-15T01:10:28;88.60;;;48.90;;
32393;SDS011;18853;45.426;9.206;2023-02-15T01:12:54;87.18;;;48.00;;
32393;SDS011;18853;45.426;9.206;2023-02-15T01:15:21;87.20;;;47.15;;
32393;SDS011;18853;45.426;9.206;2023-02-15T01:17:47;88.22;;;49.22;;
32393;SDS011;18853;45.426;9.206;2023-02-15T01:20:19;87.82;;;49.53;;
32393;SDS011;18853;45.426;9.206;2023-02-15T01:22:47;93.35;;;51.15;;
32393;SDS011;18853;45.426;9.206;2023-02-15T01:25:15;88.15;;;50.25;;
32393;SDS011;18853;45.426;9.206;2023-02-15T01:27:41;89.40;;;49.80;;
32393;SDS011;18853;45.426;9.206;2023-02-15T01:30:07;89.38;;;51.95;;
32393;SDS011;18853;45.426;9.206;2023-02-15T01:32:34;93.53;;;52.42;;
32393;SDS011;18853;45.426;9.206;2023-02-15T01:34:59;93.13;;;51.55;;
32393;SDS011;18853;45.426;9.206;2023-02-15T01:37:25;91.50;;;52.22;;
32393;SDS011;18853;45.426;9.206;2023-02-15T01:39:51;93.82;;;50.17;;
32393;SDS011;18853;45.426;9.206;2023-02-15T01:42:21;104.43;;;54.83;;
32393;SDS011;18853;45.426;9.206;2023-02-15T01:47:37;95.30;;;53.08;;
32393;SDS011;18853;45.426;9.206;2023-02-15T01:50:10;92.75;;;51.35;;
32393;SDS011;18853;45.426;9.206;2023-02-15T01:52:44;93.63;;;50.70;;
32393;SDS011;18853;45.426;9.206;2023-02-15T01:55:38;94.65;;;51.83;;
32393;SDS011;18853;45.426;9.206;2023-02-15T01:58:08;90.40;;;50.55;;
32393;SDS011;18853;45.426;9.206;2023-02-15T02:00:34;89.32;;;49.83;;
32393;SDS011;18853;45.426;9.206;2023-02-15T02:03:00;90.10;;;50.75;;
32393;SDS011;18853;45.426;9.206;2023-02-15T02:05:28;90.38;;;52.35;;
32393;SDS011;18853;45.426;9.206;2023-02-15T02:07:56;85.68;;;48.97;;
32393;SDS011;18853;45.426;9.206;2023-02-15T02:10:24;81.05;;;49.63;;
32393;SDS011;18853;45.426;9.206;2023-02-15T02:12:51;90.07;;;51.58;;
32393;SDS011;18853;45.426;9.206;2023-02-15T02:15:23;93.38;;;52.28;;
32393;SDS011;18853;45.426;9.206;2023-02-15T02:18:14;89.60;;;53.75;;
32393;SDS011;18853;45.426;9.206;2023-02-15T02:27:10;96.72;;;55.30;;
32393;SDS011;18853;45.426;9.206;2023-02-15T02:32:28;98.18;;;56.85;;
32393;SDS011;18853;45.426;9.206;2023-02-15T02:37:43;93.43;;;52.50;;
32393;SDS011;18853;45.426;9.206;2023-02-15T02:40:29;92.22;;;54.03;;
32393;SDS011;18853;45.426;9.206;2023-02-15T02:43:06;93.25;;;52.35;;
32393;SDS011;18853;45.426;9.206;2023-02-15T02:45:56;91.05;;;52.10;;
32393;SDS011;18853;45.426;9.206;2023-02-15T02:48:27;94.72;;;53.30;;
32393;SDS011;18853;45.426;9.206;2023-02-15T02:50:57;88.18;;;51.22;;
32393;SDS011;18853;45.426;9.206;2023-02-15T02:53:22;89.95;;;52.55;;
32393;SDS011;18853;45.426;9.206;2023-02-15T02:55:53;88.32;;;51.05;;
32393;SDS011;18853;45.426;9.206;2023-02-15T02:58:43;85.75;;;50.53;;
32393;SDS011;18853;45.426;9.206;2023-02-15T03:01:48;87.88;;;50.55;;
32393;SDS011;18853;45.426;9.206;2023-02-15T03:04:10;90.65;;;52.05;;
32393;SDS011;18853;45.426;9.206;2023-02-15T03:09:57;86.03;;;50.88;;
32393;SDS011;18853;45.426;9.206;2023-02-15T03:12:06;87.68;;;49.25;;
32393;SDS011;18853;45.426;9.206;2023-02-15T03:14:36;92.80;;;52.15;;
32393;SDS011;18853;45.426;9.206;2023-02-15T03:17:03;91.18;;;52.58;;
32393;SDS011;18853;45.426;9.206;2023-02-15T03:19:31;92.35;;;52.70;;
32393;SDS011;18853;45.426;9.206;2023-02-15T03:22:03;93.95;;;53.70;;
32393;SDS011;18853;45.426;9.206;2023-02-15T03:27:11;87.97;;;52.85;;
32393;SDS011;18853;45.426;9.206;2023-02-15T03:29:43;92.93;;;53.47;;
32393;SDS011;18853;45.426;9.206;2023-02-15T03:32:13;95.35;;;55.40;;
32393;SDS011;18853;45.426;9.206;2023-02-15T03:34:40;96.72;;;54.90;;
32393;SDS011;18853;45.426;9.206;2023-02-15T03:39:56;94.55;;;53.50;;
32393;SDS011;18853;45.426;9.206;2023-02-15T03:43:01;93.63;;;53.92;;
32393;SDS011;18853;45.426;9.206;2023-02-15T03:45:32;88.45;;;52.70;;
32393;SDS011;18853;45.426;9.206;2023-02-15T03:48:01;101.85;;;53.75;;
32393;SDS011;18853;45.426;9.206;2023-02-15T03:50:29;92.43;;;53.60;;
32393;SDS011;18853;45.426;9.206;2023-02-15T03:53:17;90.10;;;52.22;;
32393;SDS011;18853;45.426;9.206;2023-02-15T03:55:48;98.63;;;54.88;;
32393;SDS011;18853;45.426;9.206;2023-02-15T03:58:18;94.65;;;55.35;;
32393;SDS011;18853;45.426;9.206;2023-02-15T04:01:10;85.85;;;52.13;;
32393;SDS011;18853;45.426;9.206;2023-02-15T04:04:20;94.35;;;54.67;;
32393;SDS011;18853;45.426;9.206;2023-02-15T04:06:48;91.78;;;53.95;;
32393;SDS011;18853;45.426;9.206;2023-02-15T04:09:14;90.95;;;52.83;;
32393;SDS011;18853;45.426;9.206;2023-02-15T04:11:58;87.00;;;52.15;;
32393;SDS011;18853;45.426;9.206;2023-02-15T04:14:23;89.38;;;52.58;;
32393;SDS011;18853;45.426;9.206;2023-02-15T04:17:08;89.53;;;51.92;;
32393;SDS011;18853;45.426;9.206;2023-02-15T04:19:34;91.10;;;52.72;;
32393;SDS011;18853;45.426;9.206;2023-02-15T04:22:18;91.25;;;53.53;;
32393;SDS011;18853;45.426;9.206;2023-02-15T04:25:03;89.90;;;52.33;;
32393;SDS011;18853;45.426;9.206;2023-02-15T04:27:43;87.78;;;51.90;;
32393;SDS011;18853;45.426;9.206;2023-02-15T04:30:10;86.28;;;50.67;;
32393;SDS011;18853;45.426;9.206;2023-02-15T04:32:37;87.18;;;51.28;;
32393;SDS011;18853;45.426;9.206;2023-02-15T04:35:04;88.80;;;50.78;;
32393;SDS011;18853;45.426;9.206;2023-02-15T04:37:30;84.75;;;50.25;;
32393;SDS011;18853;45.426;9.206;2023-02-15T04:39:57;86.20;;;50.58;;
32393;SDS011;18853;45.426;9.206;2023-02-15T04:42:25;83.50;;;49.00;;
32393;SDS011;18853;45.426;9.206;2023-02-15T04:44:51;88.95;;;50.58;;
32393;SDS011;18853;45.426;9.206;2023-02-15T04:47:18;88.20;;;49.47;;
32393;SDS011;18853;45.426;9.206;2023-02-15T04:49:44;91.32;;;53.47;;
32393;SDS011;18853;45.426;9.206;2023-02-15T04:52:10;87.20;;;50.97;;
32393;SDS011;18853;45.426;9.206;2023-02-15T04:54:35;84.90;;;49.92;;
32393;SDS011;18853;45.426;9.206;2023-02-15T04:57:02;91.47;;;52.03;;
32393;SDS011;18853;45.426;9.206;2023-02-15T04:59:29;91.53;;;51.78;;
32393;SDS011;18853;45.426;9.206;2023-02-15T05:01:54;89.20;;;52.00;;
32393;SDS011;18853;45.426;9.206;2023-02-15T05:04:20;86.35;;;49.83;;
32393;SDS011;18853;45.426;9.206;2023-02-15T05:06:46;86.38;;;52.70;;
32393;SDS011;18853;45.426;9.206;2023-02-15T05:09:12;88.28;;;50.50;;
32393;SDS011;18853;45.426;9.206;2023-02-15T05:11:37;89.40;;;51.50;;
32393;SDS011;18853;45.426;9.206;2023-02-15T05:14:03;92.20;;;51.72;;
32393;SDS011;18853;45.426;9.206;2023-02-15T05:16:29;88.18;;;49.75;;
32393;SDS011;18853;45.426;9.206;2023-02-15T05:18:54;85.63;;;50.90;;
32393;SDS011;18853;45.426;9.206;2023-02-15T05:21:20;87.15;;;50.60;;
32393;SDS011;18853;45.426;9.206;2023-02-15T05:23:46;87.22;;;50.10;;
32393;SDS011;18853;45.426;9.206;2023-02-15T05:26:12;89.53;;;50.10;;
32393;SDS011;18853;45.426;9.206;2023-02-15T05:28:59;86.13;;;49.85;;
32393;SDS011;18853;45.426;9.206;2023-02-15T05:31:25;85.38;;;49.72;;
32393;SDS011;18853;45.426;9.206;2023-02-15T05:33:51;83.18;;;50.60;;
32393;SDS011;18853;45.426;9.206;2023-02-15T05:36:16;79.68;;;48.58;;
32393;SDS011;18853;45.426;9.206;2023-02-15T05:38:42;84.15;;;49.67;;
32393;SDS011;18853;45.426;9.206;2023-02-15T05:41:08;83.68;;;49.38;;
32393;SDS011;18853;45.426;9.206;2023-02-15T05:43:35;84.43;;;49.30;;
32393;SDS011;18853;45.426;9.206;2023-02-15T05:46:02;83.72;;;49.83;;
32393;SDS011;18853;45.426;9.206;2023-02-15T05:48:28;86.45;;;50.08;;
32393;SDS011;18853;45.426;9.206;2023-02-15T05:53:29;83.25;;;48.83;;
32393;SDS011;18853;45.426;9.206;2023-02-15T05:55:56;82.95;;;49.45;;
32393;SDS011;18853;45.426;9.206;2023-02-15T05:58:27;80.82;;;47.97;;
32393;SDS011;18853;45.426;9.206;2023-02-15T06:00:54;84.72;;;48.58;;
32393;SDS011;18853;45.426;9.206;2023-02-15T06:03:20;87.45;;;49.60;;
32393;SDS011;18853;45.426;9.206;2023-02-15T06:05:46;82.75;;;49.30;;
32393;SDS011;18853;45.426;9.206;2023-02-15T06:08:12;84.00;;;50.45;;
32393;SDS011;18853;45.426;9.206;2023-02-15T06:10:38;82.57;;;48.47;;
32393;SDS011;18853;45.426;9.206;2023-02-15T06:13:05;88.97;;;49.55;;
32393;SDS011;18853;45.426;9.206;2023-02-15T06:15:31;86.50;;;49.05;;
32393;SDS011;18853;45.426;9.206;2023-02-15T06:17:57;84.32;;;48.45;;
32393;SDS011;18853;45.426;9.206;2023-02-15T06:20:23;80.63;;;47.47;;
32393;SDS011;18853;45.426;9.206;2023-02-15T06:22:49;87.30;;;50.47;;
32393;SDS011;18853;45.426;9.206;2023-02-15T06:25:15;82.72;;;48.75;;
32393;SDS011;18853;45.426;9.206;2023-02-15T06:27:41;78.63;;;45.88;;
32393;SDS011;18853;45.426;9.206;2023-02-15T06:30:07;76.15;;;45.10;;
32393;SDS011;18853;45.426;9.206;2023-02-15T06:32:34;80.28;;;45.92;;
32393;SDS011;18853;45.426;9.206;2023-02-15T06:35:00;79.20;;;47.03;;
32393;SDS011;18853;45.426;9.206;2023-02-15T06:37:25;77.28;;;47.70;;
32393;SDS011;18853;45.426;9.206;2023-02-15T06:39:51;89.82;;;50.63;;
32393;SDS011;18853;45.426;9.206;2023-02-15T06:42:17;89.88;;;52.20;;
32393;SDS011;18853;45.426;9.206;2023-02-15T06:44:43;91.93;;;53.03;;
32393;SDS011;18853;45.426;9.206;2023-02-15T06:47:10;100.22;;;54.65;;
32393;SDS011;18853;45.426;9.206;2023-02-15T06:49:36;89.20;;;51.60;;
32393;SDS011;18853;45.426;9.206;2023-02-15T06:52:02;85.72;;;51.40;;
32393;SDS011;18853;45.426;9.206;2023-02-15T06:54:28;89.78;;;51.80;;
32393;SDS011;18853;45.426;9.206;2023-02-15T06:56:54;95.30;;;52.22;;
32393;SDS011;18853;45.426;9.206;2023-02-15T06:59:19;89.20;;;51.75;;
32393;SDS011;18853;45.426;9.206;2023-02-15T07:01:45;91.38;;;51.97;;
32393;SDS011;18853;45.426;9.206;2023-02-15T07:04:11;90.85;;;52.72;;
32393;SDS011;18853;45.426;9.206;2023-02-15T07:06:36;86.88;;;50.47;;
32393;SDS011;18853;45.426;9.206;2023-02-15T07:09:03;88.53;;;51.58;;
32393;SDS011;18853;45.426;9.206;2023-02-15T07:11:29;90.85;;;50.85;;
32393;SDS011;18853;45.426;9.206;2023-02-15T07:14:13;83.60;;;50.22;;
32393;SDS011;18853;45.426;9.206;2023-02-15T07:16:39;87.28;;;50.35;;
32393;SDS011;18853;45.426;9.206;2023-02-15T07:19:04;86.00;;;49.45;;
32393;SDS011;18853;45.426;9.206;2023-02-15T07:21:32;83.55;;;48.42;;
32393;SDS011;18853;45.426;9.206;2023-02-15T07:23:58;81.93;;;49.53;;
32393;SDS011;18853;45.426;9.206;2023-02-15T07:26:24;86.53;;;51.00;;
32393;SDS011;18853;45.426;9.206;2023-02-15T07:28:51;89.50;;;50.10;;
32393;SDS011;18853;45.426;9.206;2023-02-15T07:31:16;82.50;;;48.85;;
32393;SDS011;18853;45.426;9.206;2023-02-15T07:33:43;84.63;;;49.13;;
32393;SDS011;18853;45.426;9.206;2023-02-15T07:36:09;87.35;;;50.42;;
32393;SDS011;18853;45.426;9.206;2023-02-15T07:38:37;80.50;;;47.90;;
32393;SDS011;18853;45.426;9.206;2023-02-15T07:41:06;82.75;;;48.92;;
32393;SDS011;18853;45.426;9.206;2023-02-15T07:43:34;86.20;;;50.65;;
32393;SDS011;18853;45.426;9.206;2023-02-15T07:46:02;85.45;;;49.60;;
32393;SDS011;18853;45.426;9.206;2023-02-15T07:48:32;86.40;;;51.13;;
32393;SDS011;18853;45.426;9.206;2023-02-15T07:51:02;88.68;;;51.97;;
32393;SDS011;18853;45.426;9.206;2023-02-15T07:53:29;82.63;;;50.78;;
32393;SDS011;18853;45.426;9.206;2023-02-15T07:55:59;212.10;;;134.05;;
32393;SDS011;18853;45.426;9.206;2023-02-15T07:58:26;233.15;;;133.30;;
32393;SDS011;18853;45.426;9.206;2023-02-15T08:01:12;108.85;;;63.75;;
32393;SDS011;18853;45.426;9.206;2023-02-15T08:03:39;91.30;;;53.45;;
32393;SDS011;18853;45.426;9.206;2023-02-15T08:06:05;91.40;;;53.78;;
32393;SDS011;18853;45.426;9.206;2023-02-15T08:08:32;93.22;;;54.28;;
32393;SDS011;18853;45.426;9.206;2023-02-15T08:13:49;96.65;;;53.92;;
32393;SDS011;18853;45.426;9.206;2023-02-15T08:21:38;100.38;;;58.38;;
32393;SDS011;18853;45.426;9.206;2023-02-15T08:24:06;99.32;;;59.33;;
32393;SDS011;18853;45.426;9.206;2023-02-15T08:26:33;109.60;;;64.03;;
32393;SDS011;18853;45.426;9.206;2023-02-15T08:29:00;111.45;;;64.90;;
32393;SDS011;18853;45.426;9.206;2023-02-15T08:31:26;109.15;;;64.22;;
32393;SDS011;18853;45.426;9.206;2023-02-15T08:33:53;113.93;;;61.65;;
32393;SDS011;18853;45.426;9.206;2023-02-15T08:36:21;108.38;;;62.92;;
32393;SDS011;18853;45.426;9.206;2023-02-15T08:38:48;103.97;;;61.65;;
32393;SDS011;18853;45.426;9.206;2023-02-15T08:41:18;101.60;;;60.13;;
32393;SDS011;18853;45.426;9.206;2023-02-15T08:43:45;98.72;;;61.45;;
32393;SDS011;18853;45.426;9.206;2023-02-15T08:46:12;106.68;;;61.42;;
32393;SDS011;18853;45.426;9.206;2023-02-15T08:48:39;101.95;;;62.05;;
32393;SDS011;18853;45.426;9.206;2023-02-15T08:51:09;98.82;;;61.55;;
32393;SDS011;18853;45.426;9.206;2023-02-15T08:53:40;103.60;;;62.40;;
32393;SDS011;18853;45.426;9.206;2023-02-15T08:56:07;99.93;;;62.50;;
32393;SDS011;18853;45.426;9.206;2023-02-15T08:58:34;98.43;;;60.95;;
32393;SDS011;18853;45.426;9.206;2023-02-15T09:01:00;100.72;;;63.65;;
32393;SDS011;18853;45.426;9.206;2023-02-15T09:03:29;105.72;;;65.72;;
32393;SDS011;18853;45.426;9.206;2023-02-15T09:05:58;101.18;;;60.20;;
32393;SDS011;18853;45.426;9.206;2023-02-15T09:08:25;102.70;;;61.95;;
32393;SDS011;18853;45.426;9.206;2023-02-15T09:10:51;103.03;;;61.50;;
32393;SDS011;18853;45.426;9.206;2023-02-15T09:13:17;95.03;;;58.35;;
32393;SDS011;18853;45.426;9.206;2023-02-15T09:15:43;101.30;;;62.30;;
32393;SDS011;18853;45.426;9.206;2023-02-15T09:18:09;99.20;;;61.15;;
32393;SDS011;18853;45.426;9.206;2023-02-15T09:20:36;91.38;;;57.25;;
32393;SDS011;18853;45.426;9.206;2023-02-15T09:23:02;101.70;;;60.53;;
32393;SDS011;18853;45.426;9.206;2023-02-15T09:25:28;94.80;;;60.08;;
32393;SDS011;18853;45.426;9.206;2023-02-15T09:27:54;96.03;;;59.30;;
32393;SDS011;18853;45.426;9.206;2023-02-15T09:30:20;99.10;;;61.20;;
32393;SDS011;18853;45.426;9.206;2023-02-15T09:32:46;100.18;;;61.33;;
32393;SDS011;18853;45.426;9.206;2023-02-15T09:35:12;97.45;;;60.20;;
32393;SDS011;18853;45.426;9.206;2023-02-15T09:37:38;94.28;;;62.15;;
32393;SDS011;18853;45.426;9.206;2023-02-15T09:40:04;101.57;;;63.10;;
32393;SDS011;18853;45.426;9.206;2023-02-15T09:42:42;106.03;;;64.97;;
32393;SDS011;18853;45.426;9.206;2023-02-15T09:45:41;100.63;;;63.15;;
32393;SDS011;18853;45.426;9.206;2023-02-15T09:48:35;100.20;;;61.60;;
32393;SDS011;18853;45.426;9.206;2023-02-15T09:56:28;105.35;;;65.88;;
32393;SDS011;18853;45.426;9.206;2023-02-15T10:10:17;110.72;;;64.95;;
32393;SDS011;18853;45.426;9.206;2023-02-15T10:16:26;102.35;;;63.67;;
32393;SDS011;18853;45.426;9.206;2023-02-15T10:18:38;107.32;;;63.25;;
32393;SDS011;18853;45.426;9.206;2023-02-15T10:21:38;107.47;;;64.63;;
32393;SDS011;18853;45.426;9.206;2023-02-15T10:24:20;107.13;;;65.15;;
32393;SDS011;18853;45.426;9.206;2023-02-15T10:26:56;110.10;;;64.55;;
32393;SDS011;18853;45.426;9.206;2023-02-15T10:29:35;112.05;;;64.53;;
32393;SDS011;18853;45.426;9.206;2023-02-15T10:32:24;105.60;;;64.55;;
32393;SDS011;18853;45.426;9.206;2023-02-15T10:48:55;107.28;;;62.33;;
32393;SDS011;18853;45.426;9.206;2023-02-15T10:51:31;106.75;;;62.97;;
32393;SDS011;18853;45.426;9.206;2023-02-15T10:54:05;107.10;;;62.58;;
32393;SDS011;18853;45.426;9.206;2023-02-15T10:57:10;105.72;;;63.15;;
32393;SDS011;18853;45.426;9.206;2023-02-15T10:59:41;104.50;;;62.85;;
32393;SDS011;18853;45.426;9.206;2023-02-15T11:07:52;105.15;;;61.63;;
32393;SDS011;18853;45.426;9.206;2023-02-15T11:10:39;102.38;;;59.05;;
32393;SDS011;18853;45.426;9.206;2023-02-15T11:13:19;99.75;;;56.13;;
32393;SDS011;18853;45.426;9.206;2023-02-15T11:16:48;107.90;;;61.20;;
32393;SDS011;18853;45.426;9.206;2023-02-15T11:24:07;107.90;;;63.60;;
32393;SDS011;18853;45.426;9.206;2023-02-15T11:26:43;106.68;;;64.55;;
32393;SDS011;18853;45.426;9.206;2023-02-15T11:31:46;104.28;;;62.10;;
32393;SDS011;18853;45.426;9.206;2023-02-15T11:34:18;112.60;;;65.95;;
32393;SDS011;18853;45.426;9.206;2023-02-15T11:36:53;103.60;;;61.38;;
32393;SDS011;18853;45.426;9.206;2023-02-15T11:39:23;108.13;;;65.70;;
32393;SDS011;18853;45.426;9.206;2023-02-15T11:41:54;106.28;;;62.65;;
32393;SDS011;18853;45.426;9.206;2023-02-15T11:44:26;115.95;;;67.10;;
32393;SDS011;18853;45.426;9.206;2023-02-15T11:46:57;104.13;;;62.03;;
32393;SDS011;18853;45.426;9.206;2023-02-15T11:49:33;104.97;;;61.63;;
32393;SDS011;18853;45.426;9.206;2023-02-15T11:52:03;105.18;;;60.83;;
32393;SDS011;18853;45.426;9.206;2023-02-15T11:54:32;100.63;;;57.20;;
32393;SDS011;18853;45.426;9.206;2023-02-15T11:57:47;105.10;;;58.58;;
32393;SDS011;18853;45.426;9.206;2023-02-15T12:00:02;108.13;;;60.10;;
32393;SDS011;18853;45.426;9.206;2023-02-15T12:02:29;108.55;;;60.08;;
32393;SDS011;18853;45.426;9.206;2023-02-15T12:05:03;105.75;;;58.50;;
32393;SDS011;18853;45.426;9.206;2023-02-15T12:07:46;106.93;;;59.85;;
32393;SDS011;18853;45.426;9.206;2023-02-15T12:15:36;114.40;;;60.22;;
32393;SDS011;18853;45.426;9.206;2023-02-15T12:18:04;107.35;;;58.65;;
32393;SDS011;18853;45.426;9.206;2023-02-15T12:20:40;95.80;;;55.10;;
32393;SDS011;18853;45.426;9.206;2023-02-15T12:23:11;96.40;;;55.85;;
32393;SDS011;18853;45.426;9.206;2023-02-15T12:25:43;97.65;;;55.78;;
32393;SDS011;18853;45.426;9.206;2023-02-15T12:30:57;100.45;;;55.00;;
32393;SDS011;18853;45.426;9.206;2023-02-15T12:36:18;94.18;;;51.42;;
32393;SDS011;18853;45.426;9.206;2023-02-15T12:39:31;92.65;;;53.60;;
32393;SDS011;18853;45.426;9.206;2023-02-15T12:41:37;92.80;;;54.15;;
32393;SDS011;18853;45.426;9.206;2023-02-15T12:46:55;96.47;;;56.58;;
32393;SDS011;18853;45.426;9.206;2023-02-15T12:49:42;90.35;;;54.97;;
32393;SDS011;18853;45.426;9.206;2023-02-15T12:54:45;89.00;;;51.13;;
32393;SDS011;18853;45.426;9.206;2023-02-15T12:57:22;87.15;;;50.58;;
32393;SDS011;18853;45.426;9.206;2023-02-15T12:59:59;87.43;;;51.90;;
32393;SDS011;18853;45.426;9.206;2023-02-15T13:02:34;90.43;;;50.78;;
32393;SDS011;18853;45.426;9.206;2023-02-15T13:07:38;89.25;;;48.95;;
32393;SDS011;18853;45.426;9.206;2023-02-15T13:13:00;85.05;;;48.10;;
32393;SDS011;18853;45.426;9.206;2023-02-15T13:15:49;86.13;;;50.63;;
32393;SDS011;18853;45.426;9.206;2023-02-15T13:18:16;79.55;;;46.40;;
32393;SDS011;18853;45.426;9.206;2023-02-15T13:20:51;89.45;;;50.90;;
32393;SDS011;18853;45.426;9.206;2023-02-15T13:23:27;78.50;;;46.45;;
32393;SDS011;18853;45.426;9.206;2023-02-15T13:25:55;77.40;;;46.80;;
32393;SDS011;18853;45.426;9.206;2023-02-15T13:28:24;81.50;;;45.72;;
32393;SDS011;18853;45.426;9.206;2023-02-15T13:30:57;74.97;;;45.60;;
32393;SDS011;18853;45.426;9.206;2023-02-15T13:33:35;82.30;;;46.67;;
32393;SDS011;18853;45.426;9.206;2023-02-15T13:41:20;78.77;;;44.13;;
32393;SDS011;18853;45.426;9.206;2023-02-15T13:44:15;76.35;;;43.13;;
32393;SDS011;18853;45.426;9.206;2023-02-15T14:08:38;64.82;;;35.80;;
32393;SDS011;18853;45.426;9.206;2023-02-15T14:11:21;65.53;;;36.20;;
32393;SDS011;18853;45.426;9.206;2023-02-15T14:14:03;61.38;;;34.95;;
32393;SDS011;18853;45.426;9.206;2023-02-15T14:19:46;58.95;;;33.13;;
32393;SDS011;18853;45.426;9.206;2023-02-15T14:25:02;53.30;;;30.27;;
32393;SDS011;18853;45.426;9.206;2023-02-15T14:30:18;49.72;;;29.30;;
32393;SDS011;18853;45.426;9.206;2023-02-15T14:32:49;51.45;;;28.00;;
32393;SDS011;18853;45.426;9.206;2023-02-15T14:35:19;46.58;;;26.92;;
32393;SDS011;18853;45.426;9.206;2023-02-15T14:46:19;44.67;;;25.50;;
32393;SDS011;18853;45.426;9.206;2023-02-15T14:48:56;42.70;;;25.63;;
32393;SDS011;18853;45.426;9.206;2023-02-15T14:54:52;46.15;;;25.27;;
32393;SDS011;18853;45.426;9.206;2023-02-15T14:59:27;45.25;;;26.60;;
32393;SDS011;18853;45.426;9.206;2023-02-15T15:02:15;42.05;;;26.13;;
32393;SDS011;18853;45.426;9.206;2023-02-15T15:07:24;47.33;;;26.83;;
32393;SDS011;18853;45.426;9.206;2023-02-15T15:15:00;45.92;;;25.58;;
32393;SDS011;18853;45.426;9.206;2023-02-15T15:22:28;43.45;;;25.75;;
32393;SDS011;18853;45.426;9.206;2023-02-15T15:24:57;41.25;;;25.20;;
32393;SDS011;18853;45.426;9.206;2023-02-15T15:32:53;44.58;;;27.08;;
32393;SDS011;18853;45.426;9.206;2023-02-15T15:49:39;44.83;;;24.90;;
32393;SDS011;18853;45.426;9.206;2023-02-15T15:52:12;43.10;;;24.05;;
32393;SDS011;18853;45.426;9.206;2023-02-15T15:54:40;46.60;;;27.02;;
32393;SDS011;18853;45.426;9.206;2023-02-15T15:57:12;46.15;;;26.27;;
32393;SDS011;18853;45.426;9.206;2023-02-15T15:59:44;45.88;;;25.58;;
32393;SDS011;18853;45.426;9.206;2023-02-15T16:02:13;46.60;;;26.00;;
32393;SDS011;18853;45.426;9.206;2023-02-15T16:04:42;48.60;;;26.98;;
32393;SDS011;18853;45.426;9.206;2023-02-15T16:09:53;44.72;;;25.25;;
32393;SDS011;18853;45.426;9.206;2023-02-15T16:12:28;41.63;;;25.08;;
32393;SDS011;18853;45.426;9.206;2023-02-15T16:14:57;39.85;;;25.13;;
32393;SDS011;18853;45.426;9.206;2023-02-15T16:17:29;44.47;;;25.38;;
32393;SDS011;18853;45.426;9.206;2023-02-15T16:20:06;44.42;;;24.73;;
32393;SDS011;18853;45.426;9.206;2023-02-15T16:26:18;48.35;;;26.40;;
32393;SDS011;18853;45.426;9.206;2023-02-15T16:28:47;47.05;;;25.50;;
32393;SDS011;18853;45.426;9.206;2023-02-15T16:31:17;47.33;;;26.42;;
32393;SDS011;18853;45.426;9.206;2023-02-15T16:33:44;44.67;;;25.10;;
32393;SDS011;18853;45.426;9.206;2023-02-15T16:36:24;47.60;;;25.77;;
32393;SDS011;18853;45.426;9.206;2023-02-15T16:41:17;49.00;;;26.20;;
32393;SDS011;18853;45.426;9.206;2023-02-15T16:43:46;49.35;;;25.42;;
32393;SDS011;18853;45.426;9.206;2023-02-15T16:46:26;46.55;;;27.00;;
32393;SDS011;18853;45.426;9.206;2023-02-15T16:49:02;52.67;;;27.30;;
32393;SDS011;18853;45.426;9.206;2023-02-15T16:51:31;45.88;;;26.40;;
32393;SDS011;18853;45.426;9.206;2023-02-15T16:54:06;47.28;;;26.17;;
32393;SDS011;18853;45.426;9.206;2023-02-15T16:56:40;50.30;;;28.58;;
32393;SDS011;18853;45.426;9.206;2023-02-15T16:59:16;53.08;;;28.42;;
32393;SDS011;18853;45.426;9.206;2023-02-15T17:02:16;51.13;;;27.67;;
32393;SDS011;18853;45.426;9.206;2023-02-15T17:05:02;50.90;;;26.98;;
32393;SDS011;18853;45.426;9.206;2023-02-15T17:07:27;50.83;;;28.23;;
32393;SDS011;18853;45.426;9.206;2023-02-15T17:09:54;50.17;;;28.63;;
32393;SDS011;18853;45.426;9.206;2023-02-15T17:15:29;55.90;;;30.50;;
32393;SDS011;18853;45.426;9.206;2023-02-15T17:20:47;59.08;;;32.22;;
32393;SDS011;18853;45.426;9.206;2023-02-15T17:25:50;60.88;;;32.35;;
32393;SDS011;18853;45.426;9.206;2023-02-15T17:28:21;63.85;;;33.83;;
32393;SDS011;18853;45.426;9.206;2023-02-15T17:30:50;65.25;;;33.92;;
32393;SDS011;18853;45.426;9.206;2023-02-15T17:36:11;63.00;;;32.45;;
32393;SDS011;18853;45.426;9.206;2023-02-15T17:38:58;56.47;;;32.28;;
32393;SDS011;18853;45.426;9.206;2023-02-15T17:41:43;58.42;;;32.03;;
32393;SDS011;18853;45.426;9.206;2023-02-15T17:44:09;54.42;;;31.48;;
32393;SDS011;18853;45.426;9.206;2023-02-15T17:46:39;53.25;;;31.17;;
32393;SDS011;18853;45.426;9.206;2023-02-15T17:49:06;58.75;;;31.35;;
32393;SDS011;18853;45.426;9.206;2023-02-15T17:51:47;58.15;;;31.88;;
32393;SDS011;18853;45.426;9.206;2023-02-15T17:54:13;58.40;;;32.20;;
32393;SDS011;18853;45.426;9.206;2023-02-15T17:57:01;63.70;;;31.65;;
32393;SDS011;18853;45.426;9.206;2023-02-15T17:59:30;63.33;;;32.65;;
32393;SDS011;18853;45.426;9.206;2023-02-15T18:01:56;64.35;;;32.35;;
32393;SDS011;18853;45.426;9.206;2023-02-15T18:04:41;62.47;;;32.33;;
32393;SDS011;18853;45.426;9.206;2023-02-15T18:07:25;65.38;;;34.30;;